createdAt,value
2023-04-02T00:00:36.900Z,3.00
2023-04-02T00:03:23.690Z,2.40
2023-04-02T00:05:50.698Z,3.10
2023-04-02T00:08:41.112Z,2.50
2023-04-02T00:11:08.806Z,2.90
2023-04-02T00:13:53.532Z,2.80
2023-04-02T00:16:23.598Z,2.70
2023-04-02T00:18:55.065Z,2.80
2023-04-02T00:21:26.938Z,2.80
2023-04-02T00:23:55.591Z,2.60
2023-04-02T00:26:36.226Z,2.80
2023-04-02T00:29:05.639Z,2.90
2023-04-02T00:31:34.247Z,2.70
2023-04-02T00:34:04.079Z,2.80
2023-04-02T00:36:36.021Z,3.10
2023-04-02T00:39:07.911Z,3.10
2023-04-02T00:41:38.185Z,3.50
2023-04-02T00:44:05.497Z,3.10
2023-04-02T00:46:49.086Z,3.50
2023-04-02T00:49:21.557Z,2.80
2023-04-02T00:51:53.542Z,2.80
2023-04-02T00:54:22.826Z,3.00
2023-04-02T00:56:53.403Z,2.90
2023-04-02T00:59:48.519Z,3.00
2023-04-02T01:02:16.883Z,2.70
2023-04-02T01:05:05.014Z,2.50
2023-04-02T01:08:13.620Z,3.10
2023-04-02T01:11:18.504Z,2.90
2023-04-02T01:13:51.999Z,2.90
2023-04-02T01:16:30.692Z,2.70
2023-04-02T01:19:26.763Z,2.80
2023-04-02T01:22:09.042Z,3.00
2023-04-02T01:24:38.725Z,2.70
2023-04-02T01:27:15.922Z,2.70
2023-04-02T01:29:55.161Z,3.10
2023-04-02T01:32:23.616Z,3.50
2023-04-02T01:34:51.961Z,3.40
2023-04-02T01:37:57.262Z,3.90
2023-04-02T01:40:40.144Z,3.60
2023-04-02T01:43:12.894Z,4.60
2023-04-02T01:45:40.043Z,4.10
2023-04-02T01:48:33.047Z,3.90
2023-04-02T01:51:04.933Z,3.90
2023-04-02T01:53:31.762Z,3.80
2023-04-02T01:56:01.029Z,3.30
2023-04-02T01:58:31.221Z,3.10
2023-04-02T02:01:02.409Z,3.50
2023-04-02T02:03:29.788Z,3.00
2023-04-02T02:05:57.662Z,2.70
2023-04-02T02:08:31.196Z,3.40
2023-04-02T02:10:58.189Z,3.00
2023-04-02T02:13:25.007Z,2.90
2023-04-02T02:15:51.870Z,3.40
2023-04-02T02:18:25.755Z,3.30
2023-04-02T02:20:53.556Z,2.80
2023-04-02T02:23:21.011Z,2.70
2023-04-02T02:25:47.911Z,2.60
2023-04-02T02:28:30.250Z,2.80
2023-04-02T02:31:01.457Z,2.60
2023-04-02T02:33:30.630Z,2.40
2023-04-02T02:36:10.021Z,2.70
2023-04-02T02:38:57.095Z,2.40
2023-04-02T02:41:40.910Z,2.40
2023-04-02T02:44:33.741Z,2.30
2023-04-02T02:47:04.420Z,2.30
2023-04-02T02:49:34.811Z,2.60
2023-04-02T02:52:14.345Z,2.60
2023-04-02T02:54:46.160Z,2.30
2023-04-02T02:57:28.892Z,2.60
2023-04-02T02:59:58.519Z,2.50
2023-04-02T03:02:27.737Z,2.60
2023-04-02T03:04:56.052Z,2.20
2023-04-02T03:07:26.186Z,2.70
2023-04-02T03:10:05.122Z,2.20
2023-04-02T03:12:50.891Z,2.40
2023-04-02T03:15:55.279Z,2.30
2023-04-02T03:18:40.514Z,2.40
2023-04-02T03:21:35.479Z,2.40
2023-04-02T03:24:23.741Z,2.40
2023-04-02T03:27:01.199Z,2.70
2023-04-02T03:29:33.738Z,2.30
2023-04-02T03:32:07.297Z,2.20
2023-04-02T03:34:40.627Z,2.10
2023-04-02T03:37:13.940Z,2.50
2023-04-02T03:39:44.479Z,2.10
2023-04-02T03:42:28.527Z,2.50
2023-04-02T03:45:13.930Z,2.00
2023-04-02T03:48:26.037Z,2.50
2023-04-02T03:51:17.437Z,2.20
2023-04-02T03:53:45.189Z,2.60
2023-04-02T03:56:27.955Z,2.50
2023-04-02T03:59:14.812Z,2.30
2023-04-02T04:01:53.555Z,2.20
2023-04-02T04:04:21.604Z,2.50
2023-04-02T04:06:51.812Z,2.60
2023-04-02T04:09:26.912Z,2.50
2023-04-02T04:12:14.304Z,2.80
2023-04-02T04:14:48.312Z,2.10
2023-04-02T04:17:24.043Z,2.60
2023-04-02T04:19:57.412Z,2.30
2023-04-02T04:22:29.780Z,2.50
2023-04-02T04:24:58.557Z,2.50
2023-04-02T04:27:42.167Z,2.30
2023-04-02T04:30:17.836Z,2.50
2023-04-02T04:32:57.605Z,2.50
2023-04-02T04:35:29.224Z,2.50
2023-04-02T04:38:07.226Z,2.30
2023-04-02T04:40:37.410Z,2.40
2023-04-02T04:43:10.595Z,2.40
2023-04-02T04:46:12.560Z,2.30
2023-04-02T04:48:52.960Z,2.20
2023-04-02T04:51:26.699Z,2.10
2023-04-02T04:53:55.253Z,2.20
2023-04-02T04:56:26.434Z,2.60
2023-04-02T04:59:00.454Z,2.20
2023-04-02T05:01:29.766Z,2.20
2023-04-02T05:04:00.802Z,2.20
2023-04-02T05:06:39.447Z,2.10
2023-04-02T05:09:21.206Z,2.20
2023-04-02T05:11:59.577Z,2.20
2023-04-02T05:14:36.458Z,2.40
2023-04-02T05:17:33.065Z,3.00
2023-04-02T05:20:23.003Z,2.40
2023-04-02T05:23:05.654Z,2.50
2023-04-02T05:25:33.073Z,2.80
2023-04-02T05:28:22.534Z,2.60
2023-04-02T05:30:53.717Z,2.60
2023-04-02T05:33:28.171Z,2.90
2023-04-02T05:36:07.032Z,2.60
2023-04-02T05:38:39.490Z,2.60
2023-04-02T05:41:26.451Z,2.50
2023-04-02T05:44:19.953Z,2.80
2023-04-02T05:46:55.594Z,2.80
2023-04-02T05:49:28.471Z,2.60
2023-04-02T05:52:00.363Z,2.60
2023-04-02T05:54:33.877Z,2.40
2023-04-02T05:57:06.913Z,2.70
2023-04-02T05:59:39.051Z,2.70
2023-04-02T06:02:24.933Z,2.80
2023-04-02T06:05:12.102Z,2.90
2023-04-02T06:08:03.008Z,2.90
2023-04-02T06:13:06.365Z,2.60
2023-04-02T06:15:36.004Z,2.60
2023-04-02T06:18:02.938Z,2.90
2023-04-02T06:20:29.657Z,2.80
2023-04-02T06:23:06.326Z,3.40
2023-04-02T06:25:42.549Z,3.00
2023-04-02T06:28:16.657Z,3.20
2023-04-02T06:30:43.870Z,3.40
2023-04-02T06:33:15.131Z,3.40
2023-04-02T06:35:42.747Z,3.50
2023-04-02T06:38:21.093Z,3.20
2023-04-02T06:40:59.420Z,3.10
2023-04-02T06:43:38.810Z,3.00
2023-04-02T06:46:17.619Z,2.80
2023-04-02T06:48:47.196Z,3.10
2023-04-02T06:51:17.336Z,3.00
2023-04-02T06:53:47.364Z,3.20
2023-04-02T06:56:42.781Z,3.30
2023-04-02T06:59:12.188Z,2.90
2023-04-02T07:01:44.749Z,2.80
2023-04-02T07:04:11.937Z,2.90
2023-04-02T07:06:38.687Z,3.20
2023-04-02T07:09:06.308Z,2.60
2023-04-02T07:11:33.549Z,3.00
2023-04-02T07:14:00.203Z,2.70
2023-04-02T07:16:28.829Z,2.90
2023-04-02T07:18:58.039Z,2.60
2023-04-02T07:21:26.244Z,3.10
2023-04-02T07:23:53.652Z,2.80
2023-04-02T07:26:24.943Z,3.30
2023-04-02T07:28:51.948Z,3.20
2023-04-02T07:31:22.974Z,3.50
2023-04-02T07:33:50.572Z,3.20
2023-04-02T07:36:20.374Z,3.30
2023-04-02T07:38:47.629Z,2.80
2023-04-02T07:41:15.401Z,3.00
2023-04-02T07:43:42.807Z,2.50
2023-04-02T07:46:11.048Z,2.30
2023-04-02T07:48:37.866Z,2.40
2023-04-02T07:51:05.513Z,3.20
2023-04-02T07:53:34.200Z,2.60
2023-04-02T07:56:02.464Z,2.50
2023-04-02T07:58:30.941Z,2.10
2023-04-02T08:00:59.135Z,2.50
2023-04-02T08:03:26.344Z,2.70
2023-04-02T08:05:57.788Z,2.40
2023-04-02T08:08:25.403Z,2.60
2023-04-02T08:10:52.167Z,2.60
2023-04-02T08:13:19.133Z,2.60
2023-04-02T08:15:46.246Z,3.10
2023-04-02T08:18:12.961Z,2.50
2023-04-02T08:20:39.661Z,2.60
2023-04-02T08:23:14.828Z,2.60
2023-04-02T08:25:41.752Z,2.70
2023-04-02T08:28:08.543Z,2.60
2023-04-02T08:30:36.059Z,2.20
2023-04-02T08:33:03.384Z,2.50
2023-04-02T08:35:30.425Z,2.60
2023-04-02T08:37:57.156Z,2.50
2023-04-02T08:40:29.229Z,3.20
2023-04-02T08:43:12.629Z,2.70
2023-04-02T08:46:00.759Z,2.90
2023-04-02T08:48:29.219Z,2.90
2023-04-02T08:50:58.451Z,2.50
2023-04-02T08:53:30.705Z,2.80
2023-04-02T08:56:05.034Z,2.80
2023-04-02T08:58:42.359Z,3.00
2023-04-02T09:01:41.850Z,2.90
2023-04-02T09:04:18.211Z,2.90
2023-04-02T09:06:45.894Z,2.60
2023-04-02T09:09:13.944Z,2.80
2023-04-02T09:11:47.186Z,2.70
2023-04-02T09:14:44.741Z,2.50
2023-04-02T09:17:21.229Z,2.80
2023-04-02T09:20:02.891Z,2.80
2023-04-02T09:22:31.817Z,2.50
2023-04-02T09:25:03.737Z,2.80
2023-04-02T09:27:33.841Z,2.60
2023-04-02T09:30:13.487Z,2.70
2023-04-02T09:33:01.991Z,2.50
2023-04-02T09:35:31.975Z,2.20
2023-04-02T09:38:15.773Z,2.40
2023-04-02T09:40:46.191Z,2.50
2023-04-02T09:43:16.226Z,2.40
2023-04-02T09:45:54.369Z,2.00
2023-04-02T09:48:47.177Z,2.30
2023-04-02T09:51:38.676Z,2.20
2023-04-02T09:54:09.576Z,1.70
2023-04-02T09:56:38.690Z,2.30
2023-04-02T09:59:06.911Z,2.10
2023-04-02T10:01:39.551Z,2.00
2023-04-02T10:04:37.236Z,2.30
2023-04-02T10:07:06.048Z,2.20
2023-04-02T10:09:35.032Z,2.00
2023-04-02T10:12:03.762Z,2.10
2023-04-02T10:14:44.412Z,1.80
2023-04-02T10:17:24.140Z,2.20
2023-04-02T10:19:58.281Z,2.00
2023-04-02T10:22:27.751Z,2.20
2023-04-02T10:24:54.458Z,2.20
2023-04-02T10:27:30.140Z,2.20
2023-04-02T10:30:19.149Z,2.40
2023-04-02T10:32:59.032Z,2.10
2023-04-02T10:36:01.061Z,2.50
2023-04-02T10:38:41.983Z,2.40
2023-04-02T10:41:32.160Z,2.10
2023-04-02T10:44:23.553Z,2.10
2023-04-02T10:46:56.736Z,2.20
2023-04-02T10:49:38.680Z,2.50
2023-04-02T10:52:23.483Z,2.10
2023-04-02T10:54:53.280Z,2.10
2023-04-02T10:57:40.758Z,1.90
2023-04-02T11:00:16.008Z,2.00
2023-04-02T11:02:52.309Z,2.10
2023-04-02T11:05:52.988Z,1.80
2023-04-02T11:08:22.607Z,2.20
2023-04-02T11:10:55.916Z,2.20
2023-04-02T11:13:31.088Z,2.00
2023-04-02T11:15:57.984Z,1.90
2023-04-02T11:18:35.164Z,1.90
2023-04-02T11:21:03.407Z,1.70
2023-04-02T11:23:32.951Z,1.90
2023-04-02T11:26:33.633Z,1.80
2023-04-02T11:29:06.243Z,1.80
2023-04-02T11:31:33.953Z,1.90
2023-04-02T11:34:19.242Z,2.10
2023-04-02T11:36:54.613Z,1.70
2023-04-02T11:39:53.536Z,1.70
2023-04-02T11:42:27.535Z,1.40
2023-04-02T11:44:55.760Z,1.60
2023-04-02T11:47:24.939Z,1.90
2023-04-02T11:49:54.867Z,1.70
2023-04-02T11:52:43.641Z,1.70
2023-04-02T11:55:30.185Z,1.50
2023-04-02T11:58:24.851Z,1.80
2023-04-02T12:01:14.363Z,1.60
2023-04-02T12:04:22.109Z,1.80
2023-04-02T12:06:51.573Z,1.50
2023-04-02T12:09:28.785Z,1.70
2023-04-02T12:11:58.576Z,1.70
2023-04-02T12:14:37.576Z,1.90
2023-04-02T12:17:29.711Z,1.70
2023-04-02T12:20:22.190Z,1.50
2023-04-02T12:22:54.458Z,1.70
2023-04-02T12:25:26.459Z,1.70
2023-04-02T12:28:17.344Z,1.70
2023-04-02T12:33:33.131Z,1.80
2023-04-02T12:36:01.623Z,1.80
2023-04-02T12:38:38.687Z,1.70
2023-04-02T12:41:18.299Z,1.70
2023-04-02T12:43:45.117Z,2.20
2023-04-02T12:46:13.970Z,2.00
2023-04-02T12:48:40.832Z,1.80
2023-04-02T12:51:07.651Z,1.70
2023-04-02T12:53:37.082Z,1.70
2023-04-02T12:56:05.102Z,1.40
2023-04-02T12:58:35.687Z,1.40
2023-04-02T13:04:09.295Z,1.50
2023-04-02T13:06:36.502Z,1.80
2023-04-02T13:09:06.458Z,1.50
2023-04-02T13:11:40.874Z,1.90
2023-04-02T13:14:16.205Z,1.60
2023-04-02T13:16:43.286Z,1.50
2023-04-02T13:19:28.372Z,1.50
2023-04-02T13:21:56.760Z,1.40
2023-04-02T13:24:28.552Z,2.30
2023-04-02T13:27:00.579Z,1.60
2023-04-02T13:29:27.460Z,1.50
2023-04-02T13:31:58.560Z,1.40
2023-04-02T13:34:25.948Z,1.60
2023-04-02T13:36:53.110Z,1.60
2023-04-02T13:39:21.117Z,1.50
2023-04-02T13:41:51.346Z,1.60
2023-04-02T13:44:25.419Z,2.10
2023-04-02T13:46:53.795Z,1.80
2023-04-02T13:49:21.501Z,2.10
2023-04-02T13:51:54.049Z,2.20
2023-04-02T13:54:29.712Z,2.50
2023-04-02T13:56:57.201Z,2.20
2023-04-02T13:59:24.443Z,2.70
2023-04-02T14:01:54.288Z,2.40
2023-04-02T14:04:25.397Z,2.40
2023-04-02T14:07:03.845Z,2.70
2023-04-02T14:09:39.300Z,2.10
2023-04-02T14:12:33.271Z,1.70
2023-04-02T14:15:29.197Z,2.40
2023-04-02T14:17:55.982Z,2.00
2023-04-02T14:20:42.180Z,1.60
2023-04-02T14:23:33.460Z,1.80
2023-04-02T14:26:12.900Z,1.80
2023-04-02T14:29:01.123Z,2.10
2023-04-02T14:31:44.983Z,1.80
2023-04-02T14:34:32.933Z,1.80
2023-04-02T14:37:21.405Z,1.90
2023-04-02T14:40:09.895Z,1.90
2023-04-02T14:43:01.318Z,2.20
2023-04-02T14:45:40.169Z,1.80
2023-04-02T14:48:18.967Z,1.90
2023-04-02T14:50:45.861Z,1.70
2023-04-02T14:53:26.780Z,2.00
2023-04-02T14:58:27.329Z,1.90
2023-04-02T15:01:02.494Z,1.90
2023-04-02T15:03:36.929Z,1.80
2023-04-02T15:06:11.216Z,1.60
2023-04-02T15:08:58.617Z,1.60
2023-04-02T15:11:29.139Z,1.80
2023-04-02T15:14:10.389Z,1.70
2023-04-02T15:16:37.127Z,1.70
2023-04-02T15:19:17.980Z,1.80
2023-04-02T15:22:04.730Z,1.90
2023-04-02T15:24:54.101Z,1.90
2023-04-02T15:28:02.938Z,1.80
2023-04-02T15:30:38.046Z,2.00
2023-04-02T15:33:44.369Z,2.00
2023-04-02T15:36:32.225Z,1.80
2023-04-02T15:39:36.298Z,1.70
2023-04-02T15:42:16.162Z,2.00
2023-04-02T15:45:00.849Z,1.90
2023-04-02T15:47:42.406Z,1.60
2023-04-02T15:50:42.806Z,1.80
2023-04-02T15:53:29.127Z,1.70
2023-04-02T15:55:58.756Z,2.00
2023-04-02T15:59:03.618Z,2.60
2023-04-02T16:02:19.256Z,1.70
2023-04-02T16:05:10.711Z,2.00
2023-04-02T16:07:55.645Z,1.90
2023-04-02T16:10:41.271Z,2.00
2023-04-02T16:13:23.675Z,1.80
2023-04-02T16:16:10.809Z,2.00
2023-04-02T16:18:54.525Z,1.90
2023-04-02T16:21:26.574Z,1.90
2023-04-02T16:23:53.319Z,1.80
2023-04-02T16:26:31.654Z,1.90
2023-04-02T16:29:23.916Z,1.70
2023-04-02T16:32:12.760Z,2.00
2023-04-02T16:35:24.856Z,2.00
2023-04-02T16:38:21.985Z,1.70
2023-04-02T16:41:07.027Z,1.90
2023-04-02T16:43:47.149Z,1.90
2023-04-02T16:46:38.928Z,2.20
2023-04-02T16:49:26.284Z,2.20
2023-04-02T16:51:59.004Z,2.00
2023-04-02T16:54:35.676Z,2.00
2023-04-02T16:57:23.727Z,2.30
2023-04-02T17:00:15.005Z,2.40
2023-04-02T17:03:03.425Z,2.50
2023-04-02T17:05:40.522Z,2.20
2023-04-02T17:08:13.253Z,2.30
2023-04-02T17:11:05.355Z,2.20
2023-04-02T17:13:52.608Z,2.10
2023-04-02T17:16:24.582Z,2.20
2023-04-02T17:18:57.345Z,2.10
2023-04-02T17:21:25.947Z,2.10
2023-04-02T17:24:17.129Z,2.10
2023-04-02T17:27:11.519Z,1.90
2023-04-02T17:29:42.784Z,1.80
2023-04-02T17:32:26.277Z,1.70
2023-04-02T17:34:53.141Z,1.80
2023-04-02T17:37:28.147Z,1.70
2023-04-02T17:40:06.197Z,1.60
2023-04-02T17:42:48.122Z,1.90
2023-04-02T17:45:37.434Z,1.60
2023-04-02T17:48:17.269Z,1.80
2023-04-02T17:51:05.889Z,1.70
2023-04-02T17:53:38.080Z,1.50
2023-04-02T17:56:10.399Z,1.40
2023-04-02T17:59:00.770Z,1.50
2023-04-02T18:01:36.757Z,1.20
2023-04-02T18:04:27.548Z,1.30
2023-04-02T18:06:57.186Z,1.40
2023-04-02T18:09:43.880Z,1.30
2023-04-02T18:12:29.365Z,1.60
2023-04-02T18:15:15.084Z,1.50
2023-04-02T18:17:50.183Z,1.60
2023-04-02T18:20:17.303Z,1.50
2023-04-02T18:23:19.439Z,1.50
2023-04-02T18:26:16.809Z,1.40
2023-04-02T18:29:05.953Z,1.50
2023-04-02T18:31:49.955Z,1.40
2023-04-02T18:34:31.618Z,1.30
2023-04-02T18:37:39.610Z,1.30
2023-04-02T18:40:21.561Z,1.60
2023-04-02T18:42:58.112Z,1.60
2023-04-02T18:45:45.310Z,1.60
2023-04-02T18:48:11.985Z,2.10
2023-04-02T18:50:40.300Z,1.60
2023-04-02T18:53:16.842Z,1.70
2023-04-02T18:55:53.599Z,1.70
2023-04-02T18:58:52.356Z,1.70
2023-04-02T19:04:32.238Z,2.30
2023-04-02T19:07:27.084Z,2.60
2023-04-02T19:09:59.601Z,2.40
2023-04-02T19:12:27.715Z,2.20
2023-04-02T19:14:58.370Z,1.90
2023-04-02T19:17:46.526Z,1.90
2023-04-02T19:20:28.112Z,2.00
2023-04-02T19:23:06.674Z,2.10
2023-04-02T19:25:56.065Z,2.10
2023-04-02T19:28:28.692Z,2.00
2023-04-02T19:31:01.612Z,2.00
2023-04-02T19:34:06.662Z,2.10
2023-04-02T19:36:41.642Z,1.60
2023-04-02T19:39:50.408Z,1.90
2023-04-02T19:42:20.433Z,2.00
2023-04-02T19:44:51.276Z,2.00
2023-04-02T19:49:45.279Z,2.30
2023-04-02T19:52:12.447Z,2.40
2023-04-02T19:54:39.210Z,2.80
2023-04-02T19:57:06.289Z,2.70
2023-04-02T19:59:33.137Z,3.20
2023-04-02T20:02:03.626Z,2.80
2023-04-02T20:04:30.481Z,3.00
2023-04-02T20:06:57.165Z,3.40
2023-04-02T20:09:23.942Z,3.50
2023-04-02T20:11:50.669Z,3.90
2023-04-02T20:14:17.394Z,3.60
2023-04-02T20:16:45.715Z,2.30
2023-04-02T20:19:12.628Z,3.10
2023-04-02T20:21:58.086Z,2.80
2023-04-02T20:24:24.980Z,3.30
2023-04-02T20:26:51.745Z,3.00
2023-04-02T20:29:18.488Z,3.40
2023-04-02T20:31:45.352Z,4.00
2023-04-02T20:34:12.353Z,3.70
2023-04-02T20:36:39.201Z,3.70
2023-04-02T20:39:08.503Z,3.50
2023-04-02T20:41:35.411Z,3.40
2023-04-02T20:44:02.458Z,3.20
2023-04-02T20:46:29.238Z,3.00
2023-04-02T20:48:55.983Z,3.10
2023-04-02T20:51:22.694Z,2.90
2023-04-02T20:53:49.414Z,2.90
2023-04-02T20:56:17.222Z,2.70
2023-04-02T20:58:44.213Z,2.60
2023-04-02T21:01:23.498Z,2.80
2023-04-02T21:03:57.874Z,2.60
2023-04-02T21:06:26.995Z,2.90
2023-04-02T21:08:53.827Z,2.90
2023-04-02T21:11:21.976Z,3.10
2023-04-02T21:13:49.082Z,2.90
2023-04-02T21:16:21.474Z,2.80
2023-04-02T21:18:50.850Z,2.90
2023-04-02T21:21:18.974Z,2.70
2023-04-02T21:23:45.927Z,3.00
2023-04-02T21:26:15.339Z,2.70
2023-04-02T21:28:43.774Z,2.40
2023-04-02T21:31:16.456Z,2.60
2023-04-02T21:33:45.933Z,2.50
2023-04-02T21:36:21.034Z,2.80
2023-04-02T21:38:50.211Z,2.60
2023-04-02T21:41:20.767Z,2.60
2023-04-02T21:43:48.521Z,2.80
2023-04-02T21:46:21.118Z,2.90
2023-04-02T21:48:49.526Z,2.60
2023-04-02T21:51:17.898Z,3.00
2023-04-02T21:53:45.648Z,3.00
2023-04-02T21:56:16.367Z,3.00
2023-04-02T21:58:44.818Z,3.10
2023-04-02T22:01:23.819Z,3.00
2023-04-02T22:03:54.171Z,2.80
2023-04-02T22:06:22.240Z,3.10
2023-04-02T22:09:00.503Z,3.10
2023-04-02T22:11:30.061Z,3.30
2023-04-02T22:13:57.612Z,3.10
2023-04-02T22:16:27.292Z,2.90
2023-04-02T22:18:55.990Z,2.70
2023-04-02T22:21:23.033Z,2.70
2023-04-02T22:23:49.835Z,3.60
2023-04-02T22:26:18.364Z,2.90
2023-04-02T22:31:32.599Z,2.80
2023-04-02T22:34:00.575Z,2.80
2023-04-02T22:36:28.822Z,2.90
2023-04-02T22:38:57.046Z,2.70
2023-04-02T22:41:26.907Z,2.90
2023-04-02T22:43:55.864Z,3.40
2023-04-02T22:46:23.625Z,3.10
2023-04-02T22:48:50.430Z,3.30
2023-04-02T22:51:19.337Z,3.30
2023-04-02T22:53:47.339Z,3.70
2023-04-02T22:56:19.654Z,3.50
2023-04-02T22:58:46.334Z,3.90
2023-04-02T23:01:18.836Z,4.10
2023-04-02T23:03:45.579Z,4.30
2023-04-02T23:06:15.866Z,4.60
2023-04-02T23:08:42.919Z,4.40
2023-04-02T23:11:15.838Z,4.70
2023-04-02T23:13:43.834Z,4.60
2023-04-02T23:16:14.688Z,4.40
2023-04-02T23:21:09.895Z,4.60
2023-04-02T23:23:37.343Z,4.30
2023-04-02T23:26:10.603Z,4.40
2023-04-02T23:28:38.870Z,4.00
2023-04-02T23:31:08.395Z,3.70
2023-04-02T23:33:35.579Z,4.10
2023-04-02T23:36:18.002Z,4.10
2023-04-02T23:38:44.818Z,4.10
2023-04-02T23:41:16.161Z,3.90
2023-04-02T23:43:42.946Z,4.20
2023-04-02T23:46:09.794Z,3.80
2023-04-02T23:48:36.542Z,3.50
2023-04-02T23:51:03.548Z,3.70
2023-04-02T23:53:30.277Z,3.50
2023-04-02T23:55:57.042Z,3.10
2023-04-02T23:58:23.756Z,2.70
